SBOSBO PVK / LGPZ
Speedbird OnlineSpeedbird Online PVK / LGPZ

Aktion National Airport
10:52 21°C

Location Preveza, Greece
Latitude: 38.925498962402344
Longitude: 20.765300750732422
Web Wikipedia
Altitude 3 Meter / 11 Feet
Distance 2,124 KM / 1,320 Miles
from London.
Time Zone UTC +3 hours (Europe/Athens)
Codes IATA: PVK
ICAO: LGPZ
Currency £1 equals EUR 1.15
Runways
RunwayLength (m)Surface
07L2871Asphalt
25R2871Asphalt
Radio
TypeDescriptionFrequency
A/GRDO563.7
APPAPP120.45
TWRTWR120.45
Live ATC
METAR LGPZ 060720Z 04013KT CAVOK 21/08 Q1025
TAF TAF LGPZ 060500Z 0606/0706 05010KT 9999 FEW025 TEMPO 0612/0618 27010KT
Weather As Of 06 Oct 2022 10:52
Description Clear sky
Wind 24 km/h from North-East (40°)
Cloud Cover 0%
Precipitation Rain: none, Snow: none
Sunrise 07:37
Sunset 19:12
Rotations During the last 90 days there were
50 flights from LHR
12 flights from LGW
49 flights to LHR
12 flights to LGW


© 2017-2022 Speedbird Online